CheckWX is a tool to help pilots better visualize weather data.  It is not intended as a substitute for an official pre-flight weather briefing.

00:49:21 UTC

SCIE TAF
Carriel Sur Airport
Concepcion, Chile
TAF AMD SCIE 200003Z 2001/2024 01005KT 8000 SCT007 BKN010 TX22/2019Z TN12/2011Z TEMPO 2001/2008 4000 BR BKN004 OVC008 BECMG 2006/2008 20005KT BECMG 2016/2018 23010KT

Jan-20@
01:00 UTC

Jan-20 @ 01:00 UTC

Jan-20@
06:00 UTC

Jan-20 @ 06:00 UTC

TAF AMD SCIE 200003Z 2001/2024 01005KT 8000 SCT007 BKN010 TX22/2019Z TN12/2011Z
Wind
  • 010° at 5 KTS
Cloud Levels
  • Scattered at 700' AGL
  • Broken at 1,000' AGL

Jan-20@
01:00 UTC

Jan-20 @ 01:00 UTC

Jan-20@
08:00 UTC

Jan-20 @ 08:00 UTC

TEMPO 2001/2008 4000 BR BKN004 OVC008

Temporary

Temporary Changes expected for less than half the time period

Conditions
Mist
Cloud Levels
  • Broken at 400' AGL
  • Overcast at 800' AGL

Jan-20@
06:00 UTC

Jan-20 @ 06:00 UTC

Jan-20@
16:00 UTC

Jan-20 @ 16:00 UTC

BECMG 2006/2008 20005KT

Becoming

Becoming Conditions expected by Mon, Jan 20, 2020 @ 08:00 UTC

Wind
  • 200° at 5 KTS
Cloud Levels
  • Scattered at 700' AGL
  • Broken at 1,000' AGL

Jan-20@
16:00 UTC

Jan-20 @ 16:00 UTC

Jan-21@
00:00 UTC

Jan-21 @ 00:00 UTC

BECMG 2016/2018 23010KT

Becoming

Becoming Conditions expected by Mon, Jan 20, 2020 @ 18:00 UTC

Wind
  • 230° at 10 KTS
Cloud Levels
  • Scattered at 700' AGL
  • Broken at 1,000' AGL